LGKR/CFU METAR and TAF weather

Enter ICAO airport designator
Station Type Date Time Source
LGKR METAR 2020/01/29 12:50 UTC NOAA

LGKR 291250Z 26009KT 9999 FEW017 SCT025 16/11 Q1012 NOSIG


Station Type Date Time Source
LGKR Decoded METAR 2020/01/29 12:50 UTC NOAA

Kerkyra Airport , Greece (LGKR) 39-37N 019-55E 4M
Jan 29, 2020 - 07:50 AM EST / 2020.01.29 1250 UTC
Wind: from the W (260 degrees) at 10 MPH (9 KT):0
Visibility: greater than 7 mile(s):0
Sky conditions: partly cloudy
Temperature: 60 F (16 C)
Dew Point: 51 F (11 C)
Relative Humidity: 72%
Pressure (altimeter): 29.88 in. Hg (1012 hPa)
ob: LGKR 291250Z 26009KT 9999 FEW017 SCT025 16/11 Q1012 NOSIG
cycle: 13

Station Type Date Time Source
LGKR TAF 2020/01/29 12:12 UTC NOAA

TAF LGKR 291100Z 2912/3012 27012KT 9999 FEW015 SCT030 BKN080 PROB30
TEMPO 2912/2924 5000 RA SCT012 FEW018CB BKN020 BKN070
BECMG 2917/2919 34010KT

Example: see airport list